sensor_id;sensor_type;location;lat;lon;timestamp;temperature;humidity
21928;DHT22;11128;51.096;17.190;2022-07-18T00:04:34;11.30;99.90
21928;DHT22;11128;51.096;17.190;2022-07-18T00:09:35;11.20;99.90
21928;DHT22;11128;51.096;17.190;2022-07-18T00:14:37;11.10;99.90
21928;DHT22;11128;51.096;17.190;2022-07-18T00:19:39;11.10;99.90
21928;DHT22;11128;51.096;17.190;2022-07-18T00:24:40;11.00;99.90
21928;DHT22;11128;51.096;17.190;2022-07-18T00:29:42;10.90;99.90
21928;DHT22;11128;51.096;17.190;2022-07-18T00:34:43;10.90;99.90
21928;DHT22;11128;51.096;17.190;2022-07-18T00:39:45;10.80;99.90
21928;DHT22;11128;51.096;17.190;2022-07-18T00:44:46;10.70;1.00
21928;DHT22;11128;51.096;17.190;2022-07-18T00:49:48;10.70;1.00
21928;DHT22;11128;51.096;17.190;2022-07-18T00:54:50;10.70;1.00
21928;DHT22;11128;51.096;17.190;2022-07-18T00:59:52;10.70;1.00
21928;DHT22;11128;51.096;17.190;2022-07-18T01:05:14;10.60;1.00
21928;DHT22;11128;51.096;17.190;2022-07-18T01:10:15;10.50;1.00
21928;DHT22;11128;51.096;17.190;2022-07-18T01:15:16;10.50;1.00
21928;DHT22;11128;51.096;17.190;2022-07-18T01:20:19;10.40;1.00
21928;DHT22;11128;51.096;17.190;2022-07-18T01:25:20;10.30;1.00
21928;DHT22;11128;51.096;17.190;2022-07-18T01:30:22;10.30;1.00
21928;DHT22;11128;51.096;17.190;2022-07-18T01:35:25;10.20;1.00
21928;DHT22;11128;51.096;17.190;2022-07-18T01:40:27;10.20;1.00
21928;DHT22;11128;51.096;17.190;2022-07-18T01:45:29;10.10;1.00
21928;DHT22;11128;51.096;17.190;2022-07-18T01:50:31;10.10;1.00
21928;DHT22;11128;51.096;17.190;2022-07-18T01:55:33;10.00;1.00
21928;DHT22;11128;51.096;17.190;2022-07-18T02:00:34;10.00;1.00
21928;DHT22;11128;51.096;17.190;2022-07-18T02:05:36;9.90;1.00
21928;DHT22;11128;51.096;17.190;2022-07-18T02:10:37;9.90;1.00
21928;DHT22;11128;51.096;17.190;2022-07-18T02:15:39;9.80;1.00
21928;DHT22;11128;51.096;17.190;2022-07-18T02:20:40;9.70;1.00
21928;DHT22;11128;51.096;17.190;2022-07-18T02:25:42;9.80;1.00
21928;DHT22;11128;51.096;17.190;2022-07-18T02:30:43;9.70;1.00
21928;DHT22;11128;51.096;17.190;2022-07-18T02:35:45;9.70;1.00
21928;DHT22;11128;51.096;17.190;2022-07-18T02:40:47;9.70;1.00
21928;DHT22;11128;51.096;17.190;2022-07-18T02:45:48;9.70;1.00
21928;DHT22;11128;51.096;17.190;2022-07-18T02:50:50;9.80;1.00
21928;DHT22;11128;51.096;17.190;2022-07-18T02:55:51;9.80;1.00
21928;DHT22;11128;51.096;17.190;2022-07-18T03:00:52;9.90;99.90
21928;DHT22;11128;51.096;17.190;2022-07-18T03:05:54;10.00;99.90
21928;DHT22;11128;51.096;17.190;2022-07-18T03:10:56;10.10;99.90
21928;DHT22;11128;51.096;17.190;2022-07-18T03:15:58;10.10;1.00
21928;DHT22;11128;51.096;17.190;2022-07-18T03:21:00;10.10;1.00
21928;DHT22;11128;51.096;17.190;2022-07-18T03:26:01;10.10;1.00
21928;DHT22;11128;51.096;17.190;2022-07-18T03:31:03;10.20;1.00
21928;DHT22;11128;51.096;17.190;2022-07-18T03:36:06;10.70;1.00
21928;DHT22;11128;51.096;17.190;2022-07-18T03:41:07;10.40;1.00
21928;DHT22;11128;51.096;17.190;2022-07-18T03:46:09;10.50;1.00
21928;DHT22;11128;51.096;17.190;2022-07-18T03:51:10;10.60;1.00
21928;DHT22;11128;51.096;17.190;2022-07-18T03:56:12;10.70;1.00
21928;DHT22;11128;51.096;17.190;2022-07-18T04:01:14;10.80;1.00
21928;DHT22;11128;51.096;17.190;2022-07-18T04:06:16;10.90;1.00
21928;DHT22;11128;51.096;17.190;2022-07-18T04:11:17;11.10;1.00
21928;DHT22;11128;51.096;17.190;2022-07-18T04:16:21;11.20;1.00
21928;DHT22;11128;51.096;17.190;2022-07-18T04:21:22;11.30;1.00
21928;DHT22;11128;51.096;17.190;2022-07-18T04:26:23;11.80;1.00
21928;DHT22;11128;51.096;17.190;2022-07-18T04:31:24;11.60;1.00
21928;DHT22;11128;51.096;17.190;2022-07-18T04:36:26;11.70;1.00
21928;DHT22;11128;51.096;17.190;2022-07-18T04:41:28;11.90;99.90
21928;DHT22;11128;51.096;17.190;2022-07-18T04:46:29;12.10;1.00
21928;DHT22;11128;51.096;17.190;2022-07-18T04:51:31;12.30;99.90
21928;DHT22;11128;51.096;17.190;2022-07-18T04:56:32;12.50;46.60
21928;DHT22;11128;51.096;17.190;2022-07-18T05:01:34;12.60;1.00
21928;DHT22;11128;51.096;17.190;2022-07-18T05:06:36;12.70;1.00
21928;DHT22;11128;51.096;17.190;2022-07-18T05:11:37;12.90;1.00
21928;DHT22;11128;51.096;17.190;2022-07-18T05:16:39;13.00;99.90
21928;DHT22;11128;51.096;17.190;2022-07-18T05:21:41;13.20;15.40
21928;DHT22;11128;51.096;17.190;2022-07-18T05:26:43;13.40;1.00
21928;DHT22;11128;51.096;17.190;2022-07-18T05:31:44;13.60;93.20
21928;DHT22;11128;51.096;17.190;2022-07-18T05:36:46;13.80;99.90
21928;DHT22;11128;51.096;17.190;2022-07-18T05:41:48;14.10;99.90
21928;DHT22;11128;51.096;17.190;2022-07-18T05:46:49;14.40;8.40
21928;DHT22;11128;51.096;17.190;2022-07-18T05:51:51;14.70;1.00
21928;DHT22;11128;51.096;17.190;2022-07-18T05:56:53;15.10;99.90
21928;DHT22;11128;51.096;17.190;2022-07-18T06:01:54;15.40;1.00
21928;DHT22;11128;51.096;17.190;2022-07-18T06:06:56;15.70;99.90
21928;DHT22;11128;51.096;17.190;2022-07-18T06:11:59;16.00;1.00
21928;DHT22;11128;51.096;17.190;2022-07-18T06:17:01;16.20;1.00
21928;DHT22;11128;51.096;17.190;2022-07-18T06:22:02;16.40;99.90
21928;DHT22;11128;51.096;17.190;2022-07-18T06:27:03;16.70;99.90
21928;DHT22;11128;51.096;17.190;2022-07-18T06:32:06;16.90;1.00
21928;DHT22;11128;51.096;17.190;2022-07-18T06:37:07;17.00;1.00
21928;DHT22;11128;51.096;17.190;2022-07-18T06:42:09;17.20;1.00
21928;DHT22;11128;51.096;17.190;2022-07-18T06:47:11;17.50;1.00
21928;DHT22;11128;51.096;17.190;2022-07-18T06:52:13;17.80;1.00
21928;DHT22;11128;51.096;17.190;2022-07-18T06:57:16;18.10;1.00
21928;DHT22;11128;51.096;17.190;2022-07-18T07:02:20;18.40;99.90
21928;DHT22;11128;51.096;17.190;2022-07-18T07:07:22;18.80;99.90
21928;DHT22;11128;51.096;17.190;2022-07-18T07:12:23;19.20;99.90
21928;DHT22;11128;51.096;17.190;2022-07-18T07:17:25;19.40;99.90
21928;DHT22;11128;51.096;17.190;2022-07-18T07:22:26;19.80;35.30
21928;DHT22;11128;51.096;17.190;2022-07-18T07:27:28;20.20;5.30
21928;DHT22;11128;51.096;17.190;2022-07-18T07:32:36;20.60;1.00
21928;DHT22;11128;51.096;17.190;2022-07-18T07:37:48;20.90;1.00
21928;DHT22;11128;51.096;17.190;2022-07-18T07:42:51;21.40;1.00
21928;DHT22;11128;51.096;17.190;2022-07-18T07:47:53;21.70;1.00
21928;DHT22;11128;51.096;17.190;2022-07-18T07:52:54;22.30;1.00
21928;DHT22;11128;51.096;17.190;2022-07-18T07:57:55;22.70;1.00
21928;DHT22;11128;51.096;17.190;2022-07-18T08:02:59;23.10;1.00
21928;DHT22;11128;51.096;17.190;2022-07-18T08:08:02;23.40;1.00
21928;DHT22;11128;51.096;17.190;2022-07-18T08:13:04;23.80;1.00
21928;DHT22;11128;51.096;17.190;2022-07-18T08:18:06;24.00;1.00
21928;DHT22;11128;51.096;17.190;2022-07-18T08:23:09;24.30;1.00
21928;DHT22;11128;51.096;17.190;2022-07-18T08:28:12;24.40;1.00
21928;DHT22;11128;51.096;17.190;2022-07-18T08:33:14;24.70;1.00
21928;DHT22;11128;51.096;17.190;2022-07-18T08:38:15;25.10;1.00
21928;DHT22;11128;51.096;17.190;2022-07-18T08:43:18;25.90;1.00
21928;DHT22;11128;51.096;17.190;2022-07-18T08:48:20;26.10;1.00
21928;DHT22;11128;51.096;17.190;2022-07-18T08:53:21;25.90;1.00
21928;DHT22;11128;51.096;17.190;2022-07-18T08:58:22;26.30;1.00
21928;DHT22;11128;51.096;17.190;2022-07-18T09:03:25;26.70;1.00
21928;DHT22;11128;51.096;17.190;2022-07-18T09:08:26;26.80;1.00
21928;DHT22;11128;51.096;17.190;2022-07-18T09:18:47;27.60;1.00
21928;DHT22;11128;51.096;17.190;2022-07-18T09:23:51;27.40;1.00
21928;DHT22;11128;51.096;17.190;2022-07-18T09:28:54;27.80;1.00
21928;DHT22;11128;51.096;17.190;2022-07-18T09:34:01;28.20;1.00
21928;DHT22;11128;51.096;17.190;2022-07-18T09:39:19;28.00;1.00
21928;DHT22;11128;51.096;17.190;2022-07-18T09:44:21;28.40;1.00
21928;DHT22;11128;51.096;17.190;2022-07-18T09:49:31;28.80;1.00
21928;DHT22;11128;51.096;17.190;2022-07-18T09:54:43;29.00;1.00
21928;DHT22;11128;51.096;17.190;2022-07-18T09:59:45;29.20;1.00
21928;DHT22;11128;51.096;17.190;2022-07-18T10:04:47;29.60;1.00
21928;DHT22;11128;51.096;17.190;2022-07-18T10:09:50;30.20;1.00
21928;DHT22;11128;51.096;17.190;2022-07-18T10:14:51;30.70;1.00
21928;DHT22;11128;51.096;17.190;2022-07-18T10:19:53;30.60;1.00
21928;DHT22;11128;51.096;17.190;2022-07-18T10:24:55;30.50;1.00
21928;DHT22;11128;51.096;17.190;2022-07-18T10:30:17;30.80;1.00
21928;DHT22;11128;51.096;17.190;2022-07-18T10:35:59;31.40;1.00
21928;DHT22;11128;51.096;17.190;2022-07-18T10:41:12;31.50;1.00
21928;DHT22;11128;51.096;17.190;2022-07-18T10:46:14;31.40;1.00
21928;DHT22;11128;51.096;17.190;2022-07-18T10:51:16;31.70;1.00
21928;DHT22;11128;51.096;17.190;2022-07-18T10:56:18;31.50;1.00
21928;DHT22;11128;51.096;17.190;2022-07-18T11:01:20;32.10;1.00
21928;DHT22;11128;51.096;17.190;2022-07-18T11:06:24;32.50;1.00
21928;DHT22;11128;51.096;17.190;2022-07-18T11:11:25;32.90;1.00
21928;DHT22;11128;51.096;17.190;2022-07-18T11:16:27;32.70;1.00
21928;DHT22;11128;51.096;17.190;2022-07-18T11:21:31;32.60;1.00
21928;DHT22;11128;51.096;17.190;2022-07-18T11:26:44;32.90;1.00
21928;DHT22;11128;51.096;17.190;2022-07-18T11:31:58;32.70;1.00
21928;DHT22;11128;51.096;17.190;2022-07-18T11:37:00;32.60;1.00
21928;DHT22;11128;51.096;17.190;2022-07-18T11:42:03;33.10;1.00
21928;DHT22;11128;51.096;17.190;2022-07-18T11:47:07;33.00;1.00
21928;DHT22;11128;51.096;17.190;2022-07-18T11:52:09;33.10;1.00
21928;DHT22;11128;51.096;17.190;2022-07-18T11:57:11;33.80;1.00
21928;DHT22;11128;51.096;17.190;2022-07-18T12:02:12;34.70;1.00
21928;DHT22;11128;51.096;17.190;2022-07-18T12:12:19;35.80;1.00
21928;DHT22;11128;51.096;17.190;2022-07-18T12:17:21;35.70;1.00
21928;DHT22;11128;51.096;17.190;2022-07-18T12:22:23;35.30;1.00
21928;DHT22;11128;51.096;17.190;2022-07-18T12:43:09;35.10;1.00
21928;DHT22;11128;51.096;17.190;2022-07-18T12:48:11;34.60;1.00
21928;DHT22;11128;51.096;17.190;2022-07-18T12:53:13;34.50;1.00
21928;DHT22;11128;51.096;17.190;2022-07-18T12:58:15;34.90;1.00
21928;DHT22;11128;51.096;17.190;2022-07-18T13:03:17;34.90;1.00
21928;DHT22;11128;51.096;17.190;2022-07-18T13:08:19;35.40;1.00
21928;DHT22;11128;51.096;17.190;2022-07-18T13:13:21;34.80;1.00
21928;DHT22;11128;51.096;17.190;2022-07-18T13:18:22;34.70;1.00
21928;DHT22;11128;51.096;17.190;2022-07-18T13:23:25;34.50;1.00
21928;DHT22;11128;51.096;17.190;2022-07-18T13:28:26;34.50;1.00
21928;DHT22;11128;51.096;17.190;2022-07-18T13:33:28;34.70;1.00
21928;DHT22;11128;51.096;17.190;2022-07-18T13:38:30;34.30;1.00
21928;DHT22;11128;51.096;17.190;2022-07-18T13:43:32;34.20;1.00
21928;DHT22;11128;51.096;17.190;2022-07-18T13:48:33;34.10;1.00
21928;DHT22;11128;51.096;17.190;2022-07-18T13:53:35;33.90;1.00
21928;DHT22;11128;51.096;17.190;2022-07-18T13:58:37;34.10;1.00
21928;DHT22;11128;51.096;17.190;2022-07-18T14:03:38;34.10;1.00
21928;DHT22;11128;51.096;17.190;2022-07-18T14:08:40;34.50;1.00
21928;DHT22;11128;51.096;17.190;2022-07-18T14:13:42;34.70;1.00
21928;DHT22;11128;51.096;17.190;2022-07-18T14:18:44;34.00;1.00
21928;DHT22;11128;51.096;17.190;2022-07-18T14:23:45;33.80;1.00
21928;DHT22;11128;51.096;17.190;2022-07-18T14:28:47;33.50;1.00
21928;DHT22;11128;51.096;17.190;2022-07-18T14:33:48;33.30;1.00
21928;DHT22;11128;51.096;17.190;2022-07-18T14:38:50;33.00;1.00
21928;DHT22;11128;51.096;17.190;2022-07-18T14:43:52;32.40;1.00
21928;DHT22;11128;51.096;17.190;2022-07-18T14:48:54;32.10;1.00
21928;DHT22;11128;51.096;17.190;2022-07-18T14:53:56;31.90;1.00
21928;DHT22;11128;51.096;17.190;2022-07-18T14:58:58;32.20;1.00
21928;DHT22;11128;51.096;17.190;2022-07-18T15:03:59;32.30;1.00
21928;DHT22;11128;51.096;17.190;2022-07-18T15:09:01;32.30;1.00
21928;DHT22;11128;51.096;17.190;2022-07-18T15:14:03;32.10;1.00
21928;DHT22;11128;51.096;17.190;2022-07-18T15:19:05;32.20;1.00
21928;DHT22;11128;51.096;17.190;2022-07-18T15:24:08;32.10;1.00
21928;DHT22;11128;51.096;17.190;2022-07-18T15:29:09;32.00;1.00
21928;DHT22;11128;51.096;17.190;2022-07-18T15:34:11;31.90;1.00
21928;DHT22;11128;51.096;17.190;2022-07-18T15:39:13;31.70;1.00
21928;DHT22;11128;51.096;17.190;2022-07-18T15:44:15;31.60;1.00
21928;DHT22;11128;51.096;17.190;2022-07-18T15:49:17;31.30;1.00
21928;DHT22;11128;51.096;17.190;2022-07-18T15:54:19;31.00;1.00
21928;DHT22;11128;51.096;17.190;2022-07-18T15:59:20;30.70;1.00
21928;DHT22;11128;51.096;17.190;2022-07-18T16:04:22;30.40;1.00
21928;DHT22;11128;51.096;17.190;2022-07-18T16:09:24;30.30;1.00
21928;DHT22;11128;51.096;17.190;2022-07-18T16:14:26;29.90;1.00
21928;DHT22;11128;51.096;17.190;2022-07-18T16:19:27;29.70;1.00
21928;DHT22;11128;51.096;17.190;2022-07-18T16:24:30;29.40;1.00
21928;DHT22;11128;51.096;17.190;2022-07-18T16:29:31;29.20;1.00
21928;DHT22;11128;51.096;17.190;2022-07-18T16:34:33;28.90;1.00
21928;DHT22;11128;51.096;17.190;2022-07-18T16:39:35;28.80;1.00
21928;DHT22;11128;51.096;17.190;2022-07-18T16:44:36;28.70;1.00
21928;DHT22;11128;51.096;17.190;2022-07-18T16:49:38;28.60;1.00
21928;DHT22;11128;51.096;17.190;2022-07-18T16:54:41;28.50;1.00
21928;DHT22;11128;51.096;17.190;2022-07-18T16:59:43;28.30;1.00
21928;DHT22;11128;51.096;17.190;2022-07-18T17:04:45;28.20;1.00
21928;DHT22;11128;51.096;17.190;2022-07-18T17:09:48;28.00;1.00
21928;DHT22;11128;51.096;17.190;2022-07-18T17:14:51;27.70;1.00
21928;DHT22;11128;51.096;17.190;2022-07-18T17:19:55;27.50;1.00
21928;DHT22;11128;51.096;17.190;2022-07-18T17:24:57;27.40;1.00
21928;DHT22;11128;51.096;17.190;2022-07-18T17:30:00;27.20;1.00
21928;DHT22;11128;51.096;17.190;2022-07-18T17:35:03;27.00;1.00
21928;DHT22;11128;51.096;17.190;2022-07-18T17:40:06;26.70;1.00
21928;DHT22;11128;51.096;17.190;2022-07-18T17:45:09;26.60;1.00
21928;DHT22;11128;51.096;17.190;2022-07-18T17:50:12;26.40;1.00
21928;DHT22;11128;51.096;17.190;2022-07-18T17:55:14;26.20;1.00
21928;DHT22;11128;51.096;17.190;2022-07-18T18:00:17;26.10;1.00
21928;DHT22;11128;51.096;17.190;2022-07-18T18:05:19;26.00;1.00
21928;DHT22;11128;51.096;17.190;2022-07-18T18:10:21;25.70;1.00
21928;DHT22;11128;51.096;17.190;2022-07-18T18:15:22;25.50;1.00
21928;DHT22;11128;51.096;17.190;2022-07-18T18:20:25;25.30;1.00
21928;DHT22;11128;51.096;17.190;2022-07-18T18:25:28;25.00;1.00
21928;DHT22;11128;51.096;17.190;2022-07-18T18:30:30;24.80;1.00
21928;DHT22;11128;51.096;17.190;2022-07-18T18:35:32;24.40;1.00
21928;DHT22;11128;51.096;17.190;2022-07-18T18:40:34;24.20;1.00
21928;DHT22;11128;51.096;17.190;2022-07-18T18:45:37;23.80;1.00
21928;DHT22;11128;51.096;17.190;2022-07-18T18:50:39;23.60;1.00
21928;DHT22;11128;51.096;17.190;2022-07-18T18:55:41;23.40;1.00
21928;DHT22;11128;51.096;17.190;2022-07-18T19:00:43;23.10;1.00
21928;DHT22;11128;51.096;17.190;2022-07-18T19:05:46;22.90;1.00
21928;DHT22;11128;51.096;17.190;2022-07-18T19:10:48;22.60;1.00
21928;DHT22;11128;51.096;17.190;2022-07-18T19:15:50;22.40;1.00
21928;DHT22;11128;51.096;17.190;2022-07-18T19:20:53;22.20;1.00
21928;DHT22;11128;51.096;17.190;2022-07-18T19:25:55;21.90;1.00
21928;DHT22;11128;51.096;17.190;2022-07-18T19:30:58;21.70;1.00
21928;DHT22;11128;51.096;17.190;2022-07-18T19:36:03;21.40;1.00
21928;DHT22;11128;51.096;17.190;2022-07-18T19:41:05;21.10;1.00
21928;DHT22;11128;51.096;17.190;2022-07-18T19:46:07;20.90;99.90
21928;DHT22;11128;51.096;17.190;2022-07-18T19:51:09;20.60;99.90
21928;DHT22;11128;51.096;17.190;2022-07-18T19:56:11;20.50;99.90
21928;DHT22;11128;51.096;17.190;2022-07-18T20:01:13;20.30;99.90
21928;DHT22;11128;51.096;17.190;2022-07-18T20:06:16;20.10;1.00
21928;DHT22;11128;51.096;17.190;2022-07-18T20:11:18;19.90;1.00
21928;DHT22;11128;51.096;17.190;2022-07-18T20:16:20;19.70;1.00
21928;DHT22;11128;51.096;17.190;2022-07-18T20:21:22;19.50;1.00
21928;DHT22;11128;51.096;17.190;2022-07-18T20:26:24;19.40;45.50
21928;DHT22;11128;51.096;17.190;2022-07-18T20:31:26;19.30;99.90
21928;DHT22;11128;51.096;17.190;2022-07-18T20:36:28;19.20;99.90
21928;DHT22;11128;51.096;17.190;2022-07-18T20:41:30;19.20;99.90
21928;DHT22;11128;51.096;17.190;2022-07-18T20:46:31;19.20;1.00
21928;DHT22;11128;51.096;17.190;2022-07-18T20:51:33;19.10;1.00
21928;DHT22;11128;51.096;17.190;2022-07-18T20:56:35;19.10;1.00
21928;DHT22;11128;51.096;17.190;2022-07-18T21:01:37;19.10;1.00
21928;DHT22;11128;51.096;17.190;2022-07-18T21:06:38;19.20;1.00
21928;DHT22;11128;51.096;17.190;2022-07-18T21:11:40;19.30;99.90
21928;DHT22;11128;51.096;17.190;2022-07-18T21:16:42;19.40;1.00
21928;DHT22;11128;51.096;17.190;2022-07-18T21:21:44;19.30;99.90
21928;DHT22;11128;51.096;17.190;2022-07-18T21:26:46;19.40;99.90
21928;DHT22;11128;51.096;17.190;2022-07-18T21:31:47;19.40;99.90
21928;DHT22;11128;51.096;17.190;2022-07-18T21:36:49;19.50;1.00
21928;DHT22;11128;51.096;17.190;2022-07-18T21:41:51;19.50;99.90
21928;DHT22;11128;51.096;17.190;2022-07-18T21:46:53;19.50;1.00
21928;DHT22;11128;51.096;17.190;2022-07-18T21:51:55;19.40;1.00
21928;DHT22;11128;51.096;17.190;2022-07-18T21:56:57;19.20;99.90
21928;DHT22;11128;51.096;17.190;2022-07-18T22:01:59;19.10;1.00
21928;DHT22;11128;51.096;17.190;2022-07-18T22:07:01;19.00;1.00
21928;DHT22;11128;51.096;17.190;2022-07-18T22:12:04;18.90;1.00
21928;DHT22;11128;51.096;17.190;2022-07-18T22:17:06;18.80;99.90
21928;DHT22;11128;51.096;17.190;2022-07-18T22:22:08;18.70;99.90
21928;DHT22;11128;51.096;17.190;2022-07-18T22:27:10;18.70;1.00
21928;DHT22;11128;51.096;17.190;2022-07-18T22:32:12;18.50;99.90
21928;DHT22;11128;51.096;17.190;2022-07-18T22:37:13;18.50;99.90
21928;DHT22;11128;51.096;17.190;2022-07-18T22:42:16;18.30;1.00
21928;DHT22;11128;51.096;17.190;2022-07-18T22:47:17;18.20;1.00
21928;DHT22;11128;51.096;17.190;2022-07-18T22:52:19;18.00;1.00
21928;DHT22;11128;51.096;17.190;2022-07-18T22:57:21;17.90;1.00
21928;DHT22;11128;51.096;17.190;2022-07-18T23:02:22;17.70;1.00
21928;DHT22;11128;51.096;17.190;2022-07-18T23:07:24;17.60;1.00
21928;DHT22;11128;51.096;17.190;2022-07-18T23:12:26;17.40;79.20
21928;DHT22;11128;51.096;17.190;2022-07-18T23:17:27;17.30;13.80
21928;DHT22;11128;51.096;17.190;2022-07-18T23:22:29;17.20;99.90
21928;DHT22;11128;51.096;17.190;2022-07-18T23:27:30;17.10;99.90
21928;DHT22;11128;51.096;17.190;2022-07-18T23:32:32;17.00;99.90
21928;DHT22;11128;51.096;17.190;2022-07-18T23:37:36;16.80;1.00
21928;DHT22;11128;51.096;17.190;2022-07-18T23:42:38;16.70;1.00
21928;DHT22;11128;51.096;17.190;2022-07-18T23:47:41;16.60;1.00
21928;DHT22;11128;51.096;17.190;2022-07-18T23:52:45;16.50;99.90
21928;DHT22;11128;51.096;17.190;2022-07-18T23:57:47;16.50;99.90
